createdAt,value
2022-11-30T00:00:16.680Z,3.06
2022-11-30T00:02:49.605Z,2.90
2022-11-30T00:05:21.123Z,2.80
2022-11-30T00:07:51.831Z,2.84
2022-11-30T00:10:23.693Z,2.81
2022-11-30T00:12:54.743Z,2.85
2022-11-30T00:15:24.923Z,2.84
2022-11-30T00:18:00.182Z,3.00
2022-11-30T00:20:30.380Z,2.91
2022-11-30T00:23:00.497Z,2.94
2022-11-30T00:25:30.538Z,2.80
2022-11-30T00:28:01.800Z,2.97
2022-11-30T00:30:31.971Z,2.95
2022-11-30T00:33:02.071Z,2.95
2022-11-30T00:35:32.158Z,2.97
2022-11-30T00:38:03.473Z,2.77
2022-11-30T00:40:33.478Z,2.81
2022-11-30T00:43:01.975Z,2.83
2022-11-30T00:45:30.408Z,2.87
2022-11-30T00:47:58.822Z,2.86
2022-11-30T00:50:27.439Z,2.95
2022-11-30T00:52:57.581Z,3.00
2022-11-30T00:55:29.199Z,2.99
2022-11-30T00:58:01.998Z,3.02
2022-11-30T01:00:32.046Z,2.93
2022-11-30T01:03:03.048Z,2.87
2022-11-30T01:05:35.497Z,2.91
2022-11-30T01:08:10.537Z,2.94
2022-11-30T01:10:44.269Z,2.96
2022-11-30T01:13:14.909Z,2.87
2022-11-30T01:15:45.042Z,3.01
2022-11-30T01:18:16.062Z,2.84
2022-11-30T01:20:46.138Z,2.89
2022-11-30T01:23:16.187Z,2.73
2022-11-30T01:25:55.885Z,2.74
2022-11-30T01:28:24.367Z,2.93
2022-11-30T01:31:02.369Z,2.84
2022-11-30T01:33:34.336Z,2.77
2022-11-30T01:36:11.457Z,2.66
2022-11-30T01:38:49.762Z,2.65
2022-11-30T01:41:32.043Z,2.70
2022-11-30T01:44:05.348Z,2.63
2022-11-30T01:46:58.282Z,2.72
2022-11-30T01:49:41.631Z,2.82
2022-11-30T01:52:23.135Z,2.82
2022-11-30T01:55:22.234Z,2.79
2022-11-30T01:58:09.708Z,2.74
2022-11-30T02:00:48.041Z,2.71
2022-11-30T02:03:30.501Z,2.58
2022-11-30T02:06:01.440Z,2.67
2022-11-30T02:08:32.075Z,2.57
2022-11-30T02:11:08.374Z,2.60
2022-11-30T02:14:12.756Z,2.50
2022-11-30T02:17:45.760Z,2.67
2022-11-30T02:20:40.764Z,2.61
2022-11-30T02:24:15.640Z,2.53
2022-11-30T02:27:13.495Z,2.63
2022-11-30T02:30:05.313Z,2.70
2022-11-30T02:33:08.820Z,2.62
2022-11-30T02:35:54.779Z,2.46
2022-11-30T02:38:29.386Z,2.47
2022-11-30T02:40:59.391Z,2.46
2022-11-30T02:43:34.052Z,2.51
2022-11-30T02:46:39.855Z,2.49
2022-11-30T02:50:06.634Z,2.77
2022-11-30T02:52:37.326Z,2.61
2022-11-30T02:55:16.278Z,2.44
2022-11-30T02:57:47.328Z,2.34
2022-11-30T03:00:18.343Z,2.31
2022-11-30T03:02:48.565Z,2.37
2022-11-30T03:05:16.942Z,2.48
2022-11-30T03:07:45.323Z,2.56
2022-11-30T03:10:13.672Z,2.40
2022-11-30T03:12:42.176Z,2.40
2022-11-30T03:15:11.546Z,2.37
2022-11-30T03:17:39.045Z,2.32
2022-11-30T03:20:08.952Z,2.42
2022-11-30T03:22:39.050Z,2.48
2022-11-30T03:25:07.900Z,2.33
2022-11-30T03:27:36.306Z,2.48
2022-11-30T03:30:05.952Z,2.50
2022-11-30T03:32:35.552Z,2.46
2022-11-30T03:35:06.283Z,2.43
2022-11-30T03:37:36.297Z,2.30
2022-11-30T03:40:08.003Z,2.40
2022-11-30T03:42:38.292Z,2.29
2022-11-30T03:45:08.872Z,2.32
2022-11-30T03:47:39.110Z,2.31
2022-11-30T03:50:09.965Z,2.35
2022-11-30T03:52:40.154Z,2.33
2022-11-30T03:55:10.760Z,2.33
2022-11-30T03:57:40.742Z,2.60
2022-11-30T04:00:12.277Z,2.41
2022-11-30T04:02:44.836Z,2.39
2022-11-30T04:05:15.394Z,2.43
2022-11-30T04:07:45.575Z,2.31
2022-11-30T04:10:15.729Z,2.34
2022-11-30T04:12:45.972Z,2.34
2022-11-30T04:15:16.237Z,2.40
2022-11-30T04:17:46.412Z,2.30
2022-11-30T04:20:16.573Z,2.40
2022-11-30T04:22:46.708Z,2.45
2022-11-30T04:25:17.009Z,2.31
2022-11-30T04:27:47.980Z,2.50
2022-11-30T04:30:18.344Z,2.54
2022-11-30T04:32:48.438Z,2.40
2022-11-30T04:35:18.654Z,2.41
2022-11-30T04:37:48.657Z,2.39
2022-11-30T04:40:18.731Z,2.33
2022-11-30T04:42:48.970Z,2.30
2022-11-30T04:45:19.242Z,2.21
2022-11-30T04:47:49.370Z,2.30
2022-11-30T04:50:19.614Z,2.17
2022-11-30T04:52:47.854Z,2.20
2022-11-30T04:55:19.488Z,2.23
2022-11-30T04:57:48.284Z,2.14
2022-11-30T05:00:19.459Z,2.27
2022-11-30T05:02:52.735Z,2.17
2022-11-30T05:05:24.061Z,2.23
2022-11-30T05:08:00.191Z,2.15
2022-11-30T05:10:31.892Z,2.12
2022-11-30T05:13:02.011Z,2.20
2022-11-30T05:15:33.208Z,2.23
2022-11-30T05:18:03.827Z,2.19
2022-11-30T05:20:33.961Z,2.37
2022-11-30T05:23:04.082Z,2.38
2022-11-30T05:25:34.166Z,2.22
2022-11-30T05:28:04.407Z,2.26
2022-11-30T05:30:32.654Z,2.21
2022-11-30T05:33:01.108Z,2.15
2022-11-30T05:35:29.460Z,2.17
2022-11-30T05:37:57.999Z,2.23
2022-11-30T05:40:28.158Z,2.08
2022-11-30T05:43:02.886Z,2.04
2022-11-30T05:45:32.910Z,2.08
2022-11-30T05:48:03.039Z,2.10
2022-11-30T05:50:33.371Z,2.24
2022-11-30T05:53:03.413Z,2.15
2022-11-30T05:55:34.072Z,2.19
2022-11-30T05:58:04.159Z,2.07
2022-11-30T06:00:34.230Z,2.17
2022-11-30T06:03:04.456Z,2.29
2022-11-30T06:05:36.522Z,2.20
2022-11-30T06:08:06.546Z,2.15
2022-11-30T06:10:37.018Z,2.19
2022-11-30T06:13:10.169Z,2.32
2022-11-30T06:15:40.176Z,2.32
2022-11-30T06:18:13.572Z,2.25
2022-11-30T06:20:43.676Z,2.18
2022-11-30T06:23:13.731Z,2.15
2022-11-30T06:25:43.937Z,2.24
2022-11-30T06:28:14.075Z,2.20
2022-11-30T06:30:44.147Z,2.10
2022-11-30T06:33:14.308Z,2.31
2022-11-30T06:35:47.737Z,2.16
2022-11-30T06:38:19.052Z,2.10
2022-11-30T06:40:49.700Z,2.10
2022-11-30T06:43:20.118Z,2.31
2022-11-30T06:45:50.364Z,2.22
2022-11-30T06:48:23.090Z,2.31
2022-11-30T06:50:53.285Z,2.22
2022-11-30T06:53:23.408Z,2.25
2022-11-30T06:55:53.954Z,2.39
2022-11-30T06:58:23.970Z,2.31
2022-11-30T07:00:54.049Z,2.21
2022-11-30T07:03:24.216Z,2.13
2022-11-30T07:05:54.472Z,2.20
2022-11-30T07:08:25.019Z,2.15
2022-11-30T07:10:55.106Z,2.12
2022-11-30T07:13:25.480Z,2.30
2022-11-30T07:15:55.764Z,2.21
2022-11-30T07:18:31.502Z,2.24
2022-11-30T07:21:05.362Z,2.33
2022-11-30T07:23:56.736Z,2.37
2022-11-30T07:26:27.944Z,2.42
2022-11-30T07:29:00.711Z,2.29
2022-11-30T07:31:36.143Z,2.39
2022-11-30T07:34:10.295Z,2.49
2022-11-30T07:36:37.749Z,2.41
2022-11-30T07:39:06.005Z,2.36
2022-11-30T07:41:35.743Z,2.34
2022-11-30T07:44:09.751Z,2.46
2022-11-30T07:46:39.705Z,2.40
2022-11-30T07:49:10.401Z,2.28
2022-11-30T07:51:38.769Z,2.33
2022-11-30T07:54:08.901Z,2.33
2022-11-30T07:56:38.699Z,2.36
2022-11-30T07:59:09.845Z,2.34
2022-11-30T08:01:39.261Z,2.45
2022-11-30T08:04:09.401Z,2.50
2022-11-30T08:06:40.014Z,2.50
2022-11-30T08:09:17.829Z,2.48
2022-11-30T08:11:50.159Z,2.54
2022-11-30T08:14:19.449Z,2.56
2022-11-30T08:16:46.633Z,2.64
2022-11-30T08:19:15.009Z,2.63
2022-11-30T08:21:43.492Z,2.61
2022-11-30T08:24:16.097Z,2.54
2022-11-30T08:26:44.599Z,2.54
2022-11-30T08:29:12.706Z,2.56
2022-11-30T08:31:41.194Z,2.69
2022-11-30T08:34:14.232Z,2.77
2022-11-30T08:36:47.114Z,2.74
2022-11-30T08:39:20.917Z,2.84
2022-11-30T08:41:52.128Z,2.83
2022-11-30T08:44:22.197Z,2.80
2022-11-30T08:46:52.926Z,2.77
2022-11-30T08:52:18.450Z,2.85
2022-11-30T08:54:48.845Z,3.05
2022-11-30T08:57:21.863Z,2.93
2022-11-30T08:59:51.662Z,2.95
2022-11-30T09:02:21.732Z,3.11
2022-11-30T09:04:53.577Z,3.12
2022-11-30T09:07:22.002Z,3.26
2022-11-30T09:09:51.868Z,3.34
2022-11-30T09:12:22.244Z,3.33
2022-11-30T09:14:57.738Z,3.38
2022-11-30T09:17:28.601Z,3.59
2022-11-30T09:19:58.423Z,3.58
2022-11-30T09:22:29.303Z,3.66
2022-11-30T09:24:58.730Z,3.65
2022-11-30T09:27:32.058Z,3.75
2022-11-30T09:30:00.244Z,3.71
2022-11-30T09:32:29.770Z,3.67
2022-11-30T09:34:57.062Z,3.76
2022-11-30T09:37:25.376Z,3.73
2022-11-30T09:39:53.666Z,3.89
2022-11-30T09:43:06.808Z,3.93
2022-11-30T09:45:38.628Z,4.10
2022-11-30T09:48:17.692Z,4.08
2022-11-30T09:50:50.778Z,4.04
2022-11-30T09:54:01.881Z,4.08
2022-11-30T09:56:40.642Z,4.04
2022-11-30T09:59:32.798Z,4.10
2022-11-30T10:02:18.547Z,4.18
2022-11-30T10:04:48.380Z,4.23
2022-11-30T10:08:17.800Z,4.11
2022-11-30T10:11:15.349Z,4.33
2022-11-30T10:14:02.989Z,4.30
2022-11-30T10:17:09.395Z,4.45
2022-11-30T10:20:30.470Z,4.82
2022-11-30T10:23:42.848Z,4.57
2022-11-30T10:26:23.651Z,4.55
2022-11-30T10:29:11.552Z,4.53
2022-11-30T10:31:46.087Z,4.54
2022-11-30T10:34:29.889Z,4.64
2022-11-30T10:37:20.485Z,4.53
2022-11-30T10:40:38.893Z,4.61
2022-11-30T10:43:38.267Z,4.60
2022-11-30T10:46:27.636Z,4.57
2022-11-30T10:49:13.820Z,4.78
2022-11-30T10:51:53.523Z,4.83
2022-11-30T10:54:24.353Z,4.93
2022-11-30T10:56:54.462Z,4.84
2022-11-30T10:59:46.860Z,4.75
2022-11-30T11:02:40.411Z,4.88
2022-11-30T11:05:29.013Z,5.02
2022-11-30T11:08:25.970Z,4.86
2022-11-30T11:10:56.053Z,5.05
2022-11-30T11:13:43.945Z,4.97
2022-11-30T11:16:13.994Z,5.02
2022-11-30T11:18:57.989Z,5.11
2022-11-30T11:21:28.154Z,5.03
2022-11-30T11:23:58.728Z,5.22
2022-11-30T11:26:30.767Z,5.17
2022-11-30T11:29:00.618Z,5.14
2022-11-30T11:31:47.435Z,4.98
2022-11-30T11:34:33.711Z,5.15
2022-11-30T11:37:37.864Z,5.34
2022-11-30T11:40:18.227Z,5.26
2022-11-30T11:42:55.332Z,5.17
2022-11-30T11:45:38.096Z,5.19
2022-11-30T11:48:38.034Z,5.17
2022-11-30T11:51:10.934Z,5.25
2022-11-30T11:54:03.963Z,5.27
2022-11-30T11:56:37.783Z,5.27
2022-11-30T11:59:32.812Z,5.32
2022-11-30T12:02:31.448Z,5.32
2022-11-30T12:05:24.596Z,5.49
2022-11-30T12:08:38.362Z,5.62
2022-11-30T12:11:46.462Z,5.71
2022-11-30T12:14:20.038Z,5.77
2022-11-30T12:17:52.965Z,5.75
2022-11-30T12:21:14.602Z,6.00
2022-11-30T12:24:31.096Z,6.06
2022-11-30T12:28:03.515Z,5.68
2022-11-30T12:31:03.597Z,5.48
2022-11-30T12:34:06.255Z,5.45
2022-11-30T12:37:19.106Z,5.60
2022-11-30T12:40:17.975Z,5.60
2022-11-30T12:43:31.833Z,5.75
2022-11-30T12:46:32.846Z,5.75
2022-11-30T12:49:42.045Z,5.84
2022-11-30T12:52:30.674Z,5.78
2022-11-30T12:55:50.872Z,5.63
2022-11-30T12:58:58.668Z,5.55
2022-11-30T13:02:01.279Z,5.30
2022-11-30T13:04:57.896Z,5.39
2022-11-30T13:07:42.648Z,5.32
2022-11-30T13:10:12.557Z,5.12
2022-11-30T13:12:51.661Z,5.06
2022-11-30T13:15:31.584Z,4.84
2022-11-30T13:18:06.705Z,4.96
2022-11-30T13:21:16.067Z,4.97
2022-11-30T13:24:23.186Z,4.78
2022-11-30T13:27:06.529Z,4.63
2022-11-30T13:30:34.710Z,4.32
2022-11-30T13:33:35.481Z,4.30
2022-11-30T13:36:44.967Z,4.29
2022-11-30T13:39:14.942Z,4.03
2022-11-30T13:41:51.549Z,3.70
2022-11-30T13:44:44.403Z,3.43
2022-11-30T13:47:29.964Z,3.45
2022-11-30T13:50:24.978Z,3.12
2022-11-30T13:52:58.066Z,2.93
2022-11-30T13:55:43.181Z,2.82
2022-11-30T13:58:16.434Z,2.49
2022-11-30T14:01:01.162Z,2.30
2022-11-30T14:03:33.359Z,2.26
2022-11-30T14:06:41.625Z,1.80
2022-11-30T14:09:34.056Z,1.58
2022-11-30T14:12:36.746Z,1.57
2022-11-30T14:15:41.705Z,1.46
2022-11-30T14:18:11.588Z,1.39
2022-11-30T14:21:00.912Z,1.24
2022-11-30T14:23:39.306Z,1.16
2022-11-30T14:26:18.040Z,1.13
2022-11-30T14:29:33.407Z,1.18
2022-11-30T14:32:30.132Z,1.04
2022-11-30T14:35:20.030Z,0.83
2022-11-30T14:37:58.074Z,0.73
2022-11-30T14:40:31.095Z,0.98
2022-11-30T14:43:04.274Z,0.84
2022-11-30T14:45:35.347Z,0.57
2022-11-30T14:48:16.879Z,0.55
2022-11-30T14:51:03.363Z,0.61
2022-11-30T14:54:06.427Z,0.48
2022-11-30T14:57:00.285Z,0.50
2022-11-30T14:59:53.222Z,0.48
2022-11-30T15:02:38.750Z,0.45
2022-11-30T15:05:20.891Z,0.40
2022-11-30T15:07:51.292Z,0.28
2022-11-30T15:10:34.296Z,0.43
2022-11-30T15:13:03.825Z,0.45
2022-11-30T15:15:36.131Z,0.32
2022-11-30T15:18:19.890Z,0.24
2022-11-30T15:21:17.409Z,0.23
2022-11-30T15:23:50.847Z,0.18
2022-11-30T15:26:51.020Z,0.10
2022-11-30T15:30:01.962Z,0.31
2022-11-30T15:32:32.328Z,0.37
2022-11-30T15:35:02.799Z,0.18
2022-11-30T15:37:39.125Z,0.39
2022-11-30T15:40:22.771Z,0.23
2022-11-30T15:42:53.088Z,-0.11
2022-11-30T15:45:36.347Z,-0.01
2022-11-30T15:48:33.877Z,-0.06
2022-11-30T15:51:02.276Z,-0.06
2022-11-30T15:53:50.694Z,-0.03
2022-11-30T16:01:06.607Z,-0.10
2022-11-30T16:03:59.797Z,-0.08
2022-11-30T16:06:46.331Z,-0.16
2022-11-30T16:09:33.923Z,0.07
2022-11-30T16:12:02.598Z,-0.01
2022-11-30T16:14:32.460Z,-0.06
2022-11-30T16:17:05.612Z,0.05
2022-11-30T16:19:38.843Z,-0.10
2022-11-30T16:22:14.451Z,-0.04
2022-11-30T16:24:43.170Z,0.10
2022-11-30T16:27:19.914Z,0.32
2022-11-30T16:29:52.809Z,0.13
2022-11-30T16:32:23.361Z,0.13
2022-11-30T16:34:52.992Z,0.07
2022-11-30T16:37:22.800Z,0.14
2022-11-30T16:39:52.657Z,0.18
2022-11-30T16:42:23.081Z,0.14
2022-11-30T16:44:52.709Z,0.02
2022-11-30T16:47:22.492Z,0.09
2022-11-30T16:49:52.186Z,0.05
2022-11-30T16:52:21.948Z,0.05
2022-11-30T16:54:51.817Z,-0.05
2022-11-30T16:57:21.528Z,-0.01
2022-11-30T16:59:51.738Z,-0.01
2022-11-30T17:02:24.780Z,-0.01
2022-11-30T17:04:58.366Z,0.14
2022-11-30T17:07:26.584Z,0.25
2022-11-30T17:09:55.118Z,0.20
2022-11-30T17:12:26.249Z,0.22
2022-11-30T17:14:54.997Z,0.25
2022-11-30T17:17:23.558Z,0.23
2022-11-30T17:19:52.019Z,0.18
2022-11-30T17:22:20.413Z,0.19
2022-11-30T17:24:49.098Z,0.19
2022-11-30T17:27:17.239Z,0.14
2022-11-30T17:29:45.718Z,0.17
2022-11-30T17:32:14.154Z,0.16
2022-11-30T17:34:42.561Z,0.32
2022-11-30T17:37:13.715Z,0.22
2022-11-30T17:39:43.964Z,0.09
2022-11-30T17:42:16.473Z,0.11
2022-11-30T17:44:47.251Z,0.17
2022-11-30T17:47:17.562Z,0.04
2022-11-30T17:49:47.685Z,-0.02
2022-11-30T17:52:18.075Z,-0.11
2022-11-30T17:54:48.321Z,-0.04
2022-11-30T17:57:18.625Z,-0.06
2022-11-30T17:59:48.717Z,-0.03
2022-11-30T18:02:18.898Z,-0.03
2022-11-30T18:04:49.294Z,0.14
2022-11-30T18:07:20.185Z,0.15
2022-11-30T18:09:50.284Z,0.05
2022-11-30T18:12:20.949Z,0.17
2022-11-30T18:14:51.176Z,0.09
2022-11-30T18:17:21.284Z,0.04
2022-11-30T18:19:49.696Z,0.16
2022-11-30T18:22:18.107Z,0.32
2022-11-30T18:24:47.043Z,0.13
2022-11-30T18:27:15.118Z,0.15
2022-11-30T18:29:43.434Z,0.15
2022-11-30T18:32:12.358Z,0.28
2022-11-30T18:34:40.337Z,0.22
2022-11-30T18:37:08.635Z,0.17
2022-11-30T18:39:37.031Z,0.27
2022-11-30T18:42:05.953Z,0.22
2022-11-30T18:44:33.860Z,0.14
2022-11-30T18:47:02.309Z,0.23
2022-11-30T18:49:30.705Z,0.13
2022-11-30T18:51:59.279Z,0.14
2022-11-30T18:54:27.525Z,0.28
2022-11-30T18:56:55.965Z,0.01
2022-11-30T18:59:24.467Z,-0.01
2022-11-30T19:01:53.521Z,-0.01
2022-11-30T19:04:25.866Z,-0.12
2022-11-30T19:06:55.895Z,-0.11
2022-11-30T19:09:26.048Z,-0.17
2022-11-30T19:11:58.088Z,0.14
2022-11-30T19:14:27.479Z,0.03
2022-11-30T19:16:56.058Z,0.03
2022-11-30T19:19:24.469Z,-0.09
2022-11-30T19:21:52.877Z,-0.14
2022-11-30T19:24:24.010Z,-0.03
2022-11-30T19:26:54.722Z,-0.09
2022-11-30T19:29:25.022Z,-0.07
2022-11-30T19:31:55.097Z,-0.22
2022-11-30T19:34:25.251Z,-0.20
2022-11-30T19:36:55.329Z,-0.21
2022-11-30T19:39:25.373Z,-0.29
2022-11-30T19:41:55.467Z,-0.24
2022-11-30T19:44:25.564Z,-0.21
2022-11-30T19:46:55.651Z,-0.11
2022-11-30T19:49:25.911Z,0.02
2022-11-30T19:51:56.028Z,-0.13
2022-11-30T19:54:26.418Z,-0.21
2022-11-30T19:56:58.140Z,-0.10
2022-11-30T19:59:28.203Z,-0.17
2022-11-30T20:01:58.411Z,-0.24
2022-11-30T20:04:28.425Z,-0.21
2022-11-30T20:06:56.949Z,-0.30
2022-11-30T20:09:25.401Z,-0.13
2022-11-30T20:11:54.503Z,-0.10
2022-11-30T20:14:23.153Z,-0.23
2022-11-30T20:16:52.788Z,-0.28
2022-11-30T20:19:20.566Z,-0.38
2022-11-30T20:21:49.006Z,-0.23
2022-11-30T20:24:17.252Z,-0.32
2022-11-30T20:26:46.877Z,-0.30
2022-11-30T20:29:19.246Z,-0.26
2022-11-30T20:31:49.474Z,-0.32
2022-11-30T20:34:18.658Z,-0.32
2022-11-30T20:36:46.729Z,-0.36
2022-11-30T20:39:16.602Z,-0.34
2022-11-30T20:41:46.480Z,-0.29
2022-11-30T20:44:16.437Z,-0.17
2022-11-30T20:46:46.342Z,-0.24
2022-11-30T20:49:21.447Z,-0.37
2022-11-30T20:51:51.132Z,-0.42
2022-11-30T20:54:18.785Z,-0.45
2022-11-30T20:56:51.113Z,-0.49
2022-11-30T20:59:23.842Z,-0.47
2022-11-30T21:01:56.358Z,-0.36
2022-11-30T21:04:26.349Z,-0.31
2022-11-30T21:06:55.437Z,-0.33
2022-11-30T21:09:25.131Z,-0.34
2022-11-30T21:11:55.002Z,-0.26
2022-11-30T21:14:24.662Z,-0.35
2022-11-30T21:16:54.574Z,-0.38
2022-11-30T21:19:24.689Z,-0.50
2022-11-30T21:21:56.137Z,-0.53
2022-11-30T21:24:25.411Z,-0.43
2022-11-30T21:26:55.227Z,-0.48
2022-11-30T21:29:25.041Z,-0.46
2022-11-30T21:31:54.916Z,-0.23
2022-11-30T21:34:25.574Z,-0.29
2022-11-30T21:36:55.094Z,-0.33
2022-11-30T21:39:25.024Z,-0.33
2022-11-30T21:41:54.782Z,-0.17
2022-11-30T21:44:24.779Z,-0.35
2022-11-30T21:46:54.655Z,-0.32
2022-11-30T21:49:23.716Z,-0.47
2022-11-30T21:51:51.516Z,-0.32
2022-11-30T21:54:20.137Z,-0.42
2022-11-30T21:56:52.360Z,-0.53
2022-11-30T21:59:20.345Z,-0.60
2022-11-30T22:01:48.414Z,-0.56
2022-11-30T22:04:16.993Z,-0.58
2022-11-30T22:06:45.446Z,-0.61
2022-11-30T22:09:18.117Z,-0.57
2022-11-30T22:11:46.665Z,-0.63
2022-11-30T22:14:17.623Z,-0.55
2022-11-30T22:16:46.838Z,-0.57
2022-11-30T22:19:18.116Z,-0.58
2022-11-30T22:21:50.414Z,-0.58
2022-11-30T22:24:18.655Z,-0.63
2022-11-30T22:26:49.332Z,-0.70
2022-11-30T22:29:23.223Z,-0.64
2022-11-30T22:31:55.249Z,-0.72
2022-11-30T22:34:25.363Z,-0.65
2022-11-30T22:36:55.053Z,-0.72
2022-11-30T22:39:24.649Z,-0.70
2022-11-30T22:41:55.756Z,-0.68
2022-11-30T22:44:26.805Z,-0.82
2022-11-30T22:46:57.586Z,-0.71
2022-11-30T22:49:25.275Z,-0.71
2022-11-30T22:51:53.630Z,-0.72
2022-11-30T22:54:22.256Z,-0.68
2022-11-30T22:56:50.426Z,-0.73
2022-11-30T22:59:18.787Z,-0.77
2022-11-30T23:01:51.579Z,-0.75
2022-11-30T23:04:25.060Z,-0.78
2022-11-30T23:06:53.152Z,-0.60
2022-11-30T23:09:24.319Z,-0.68
2022-11-30T23:11:53.201Z,-0.78
2022-11-30T23:14:22.999Z,-0.80
2022-11-30T23:16:52.733Z,-0.72
2022-11-30T23:19:22.692Z,-0.60
2022-11-30T23:21:53.415Z,-0.73
2022-11-30T23:24:23.987Z,-0.81
2022-11-30T23:26:54.077Z,-0.82
2022-11-30T23:29:24.156Z,-0.87
2022-11-30T23:31:53.765Z,-0.84
2022-11-30T23:34:23.803Z,-0.49
2022-11-30T23:36:51.970Z,-0.57
2022-11-30T23:39:21.783Z,-0.55
2022-11-30T23:41:52.061Z,-0.79
2022-11-30T23:44:21.542Z,-0.65
2022-11-30T23:46:51.601Z,-0.72
2022-11-30T23:49:21.565Z,-0.74
2022-11-30T23:51:51.095Z,-0.75
2022-11-30T23:54:21.181Z,-0.70
2022-11-30T23:56:51.269Z,-0.71
2022-11-30T23:59:21.342Z,-0.80
